Latest Weather Observations for Cerberus

IDV60801

Issued at 10:35 pm EST Wednesday 30 July 2014 (issued every 30 minutes, with the page automatically refreshed every 10 minutes)

About weather observations | Map of weather stations | Latest weather observations for VIC | Other Formats
Station Details ID: 086361 Name: CERBERUS Lat: -38.36 Lon: 145.18 Height: 12.69 m
Data from the previous 72 hours. | See also: Recent months at Cerberus
Date/Time
EST
Temp
°C
App
Temp
°C
Dew
Point
Rel
Hum
%
Delta-T
°C
Wind Press
QNH
hPa
Press
MSL
hPa
Rain
since 9 am
mm
Dir
 
Spd
km/h
Gust
km/h
Spd
kts
Gust
kts
30/10:34pm 15.7 9.7 7.2 57 4.2 NNW 28 50 15 27 1006.5 - 0.4
30/10:30pm 15.8 10.2 7.3 57 4.2 NNW 26 50 14 27 1006.4 - 0.4
30/10:04pm 15.7 9.8 7.5 58 4.1 NNW 28 56 15 30 1007.2 - 0.4
30/10:00pm 15.7 10.2 7.5 58 4.1 NNW 26 56 14 30 1007.2 1007.3 0.4
30/09:30pm 15.4 10.7 7.7 60 3.8 NNW 22 37 12 20 1007.6 - 0.4
30/09:00pm 15.2 10.2 8.2 63 3.5 NW 24 41 13 22 1007.9 1008.0 0.4
30/08:30pm 15.5 9.9 8.7 64 3.5 NW 28 50 15 27 1007.7 - 0.4
30/08:25pm 15.5 9.5 8.7 64 3.5 NW 30 50 16 27 1007.5 - 0.4
30/08:00pm 15.4 10.6 8.9 65 3.3 NNW 24 46 13 25 1007.5 1007.6 0.4
30/07:30pm 15.5 10.4 9.2 66 3.2 NNW 26 41 14 22 1007.4 - 0.4
30/07:00pm 15.1 11.3 9.2 68 3.0 NNW 19 30 10 16 1008.0 1008.1 0.4
30/06:30pm 15.1 11.2 9.5 69 2.9 NNW 20 39 11 21 1007.9 - 0.4
30/06:00pm 14.9 11.5 9.3 69 2.9 NNW 17 32 9 17 1007.8 1007.9 0.4
30/05:30pm 15.2 10.9 9.3 68 3.0 NNW 22 37 12 20 1007.6 - 0.4
30/05:00pm 15.4 12.0 10.4 72 2.6 NNW 19 35 10 19 1007.7 1007.8 0.4
30/04:30pm 15.2 11.7 11.0 76 2.2 NW 20 33 11 18 1007.9 - 0.4
30/04:00pm 14.3 11.0 11.5 83 1.5 NW 20 32 11 17 1008.2 1008.3 0.4
30/03:30pm 14.9 11.5 11.1 78 2.0 NW 20 39 11 21 1008.2 - 0.2
30/03:00pm 16.0 14.0 11.6 75 2.4 NW 13 22 7 12 1008.2 1008.3 0.2
30/02:30pm 15.9 14.2 12.5 80 1.9 NW 13 24 7 13 1008.1 - 0.2
30/02:00pm 14.3 10.4 10.7 79 1.9 WNW 22 41 12 22 1008.8 1008.9 0.0
30/01:30pm 16.3 12.8 10.2 67 3.2 NW 19 32 10 17 1008.7 - 0.0
30/01:00pm 15.9 13.2 10.4 70 2.9 NW 15 26 8 14 1009.4 1009.5 0.0
30/12:30pm 15.9 11.0 9.8 67 3.2 NW 26 48 14 26 1009.7 - 0.0
30/12:26pm 15.9 10.5 9.6 66 3.3 NW 28 48 15 26 1009.6 - 0.0
30/12:00pm 16.6 12.9 10.0 65 3.5 NW 20 32 11 17 1010.1 1010.2 0.0
30/11:30am 15.8 12.2 9.7 67 3.2 NW 19 35 10 19 1010.5 - 0.0
30/11:00am 14.2 11.9 10.4 78 2.0 NNW 13 28 7 15 1011.1 1011.2 0.0
30/10:30am 14.5 10.8 9.3 71 2.7 NW 19 35 10 19 1011.4 - 0.0
30/10:00am 14.3 10.0 9.5 73 2.5 NW 22 39 12 21 1011.4 1011.5 0.0
30/09:30am 13.5 10.9 9.4 76 2.1 NNW 13 24 7 13 1011.5 - 0.0
30/09:00am 13.4 11.5 8.9 74 2.3 N 9 17 5 9 1011.3 1011.4 14.2
30/08:30am 13.2 10.8 8.7 74 2.3 NNW 11 22 6 12 1011.1 - 14.2
30/08:00am 13.1 10.4 8.8 75 2.2 NW 13 20 7 11 1011.0 1011.1 14.2
30/07:30am 12.7 10.1 9.3 80 1.7 NNW 13 22 7 12 1011.0 - 14.2
30/07:00am 12.1 10.3 9.3 83 1.4 NNW 9 17 5 9 1011.0 1011.1 14.2
30/06:30am 12.2 10.5 9.8 85 1.2 NW 9 15 5 8 1010.9 - 14.2
30/06:00am 12.2 9.0 9.9 86 1.2 WNW 17 28 9 15 1010.8 1010.9 14.2
30/05:30am 11.8 9.8 10.0 89 0.9 NW 11 19 6 10 1010.7 - 14.2
30/05:00am 12.2 9.9 10.6 90 0.8 NW 13 22 7 12 1010.4 1010.5 14.2
30/04:30am 12.2 9.2 10.8 91 0.7 WNW 17 30 9 16 1010.1 - 14.2
30/04:00am 12.2 10.8 10.8 91 0.7 NW 9 17 5 9 1010.0 1010.1 14.0
30/03:30am 12.3 11.3 10.9 91 0.7 NW 7 15 4 8 1010.1 - 12.0
30/03:00am 12.2 8.9 10.8 91 0.7 W 19 32 10 17 1010.3 1010.4 11.2
30/02:36am 12.0 6.8 10.4 90 0.8 W 28 48 15 26 1009.9 - 9.6
30/02:30am 12.2 7.1 10.6 90 0.8 W 28 43 15 23 1010.0 - 9.0
30/02:13am 12.2 7.0 10.4 89 0.9 WNW 28 46 15 25 1009.8 - 7.8
30/02:00am 12.5 7.7 10.4 87 1.1 WNW 26 39 14 21 1009.9 1010.0 6.8
30/01:30am 13.8 9.7 10.0 78 2.0 WNW 22 35 12 19 1009.7 - 6.6
30/01:00am 13.6 9.3 10.6 82 1.6 WNW 24 46 13 25 1009.4 1009.5 6.6
30/12:30am 13.4 9.2 11.1 86 1.2 NW 24 37 13 20 1009.2 - 6.6
30/12:00am 13.1 9.7 11.2 88 1.0 WNW 20 35 11 19 1009.2 1009.3 6.6
 
Date/Time
EST
Temp
°C
App
Temp
°C
Dew
Point
Rel
Hum
%
Delta-T
°C
Wind Press
QNH
hPa
Press
MSL
hPa
Rain
since 9 am
mm
Dir
 
Spd
km/h
Gust
km/h
Spd
kts
Gust
kts
29/11:30pm 12.8 9.6 11.2 90 0.8 WNW 19 37 10 20 1009.5 - 6.4
29/11:00pm 13.1 9.9 11.2 88 1.0 WNW 19 33 10 18 1009.3 1009.4 5.6
29/10:45pm 13.3 8.3 11.0 86 1.2 WNW 28 52 15 28 1008.9 - 5.6
29/10:30pm 13.2 9.8 11.1 87 1.1 WNW 20 37 11 20 1008.7 - 5.6
29/10:00pm 13.0 9.1 10.7 86 1.2 WNW 22 35 12 19 1008.8 1008.9 5.4
29/09:30pm 14.7 9.7 9.7 72 2.6 WNW 26 46 14 25 1008.3 - 3.6
29/09:11pm 15.3 10.0 9.9 70 2.8 NW 28 46 15 25 1007.5 - 3.6
29/09:00pm 15.2 9.9 9.8 70 2.8 NW 28 43 15 23 1007.5 1007.6 3.6
29/08:30pm 15.2 10.0 10.2 72 2.6 NW 28 41 15 22 1007.5 - 3.6
29/08:00pm 15.0 9.8 10.2 73 2.5 NW 28 48 15 26 1007.2 1007.3 3.6
29/07:47pm 15.1 9.8 9.9 71 2.7 NW 28 46 15 25 1007.2 - 3.6
29/07:30pm 15.2 10.3 9.8 70 2.8 NW 26 43 14 23 1007.3 - 3.6
29/07:00pm 15.2 9.9 9.8 70 2.8 NW 28 48 15 26 1007.0 1007.1 3.6
29/06:30pm 15.1 9.4 9.9 71 2.7 NNW 30 56 16 30 1006.5 - 3.4
29/06:15pm 15.1 9.9 10.3 73 2.5 NW 28 50 15 27 1006.3 - 3.4
29/06:00pm 14.5 10.6 10.7 78 2.0 NNW 22 37 12 20 1006.2 1006.3 3.4
29/05:30pm 13.6 10.3 11.5 87 1.1 NNW 20 41 11 22 1006.3 - 3.4
29/05:00pm 12.6 8.3 10.7 88 1.0 NNW 24 39 13 21 1006.3 1006.4 3.4
29/04:30pm 12.7 7.8 10.1 84 1.3 NNW 26 44 14 24 1006.3 - 2.2
29/04:00pm 13.2 8.6 9.6 79 1.8 NNW 24 41 13 22 1005.6 1005.7 0.4
29/03:30pm 13.4 9.7 9.5 77 2.0 NNW 19 32 10 17 1005.5 - 0.2
29/03:00pm 13.8 8.2 8.8 72 2.5 NNW 28 43 15 23 1005.3 1005.4 0.0
29/02:31pm 14.5 8.9 8.7 68 2.9 NNW 28 54 15 29 1004.8 - 0.0
29/02:30pm 14.5 9.3 8.7 68 2.9 NNW 26 54 14 29 1004.7 - 0.0
29/02:05pm 13.9 8.2 8.3 69 2.8 NNW 28 46 15 25 1005.0 - 0.0
29/02:00pm 13.9 8.6 8.3 69 2.8 NNW 26 41 14 22 1005.0 1005.1 0.0
29/01:30pm 13.3 8.1 9.0 75 2.2 NNW 26 50 14 27 1005.0 - 0.0
29/01:08pm 13.9 8.1 8.1 68 2.9 NNW 28 50 15 27 1005.3 - 0.0
29/01:00pm 13.9 9.2 7.9 67 3.0 NNW 22 37 12 20 1005.3 1005.4 0.0
29/12:39pm 13.8 8.0 7.8 67 3.0 NNW 28 50 15 27 1005.5 - 0.0
29/12:30pm 13.7 8.3 7.9 68 2.9 NNW 26 48 14 26 1005.6 - 0.0
29/12:01pm 14.0 8.2 8.0 67 3.0 NNW 28 48 15 26 1006.2 - 0.0
29/12:00pm 14.0 7.8 8.0 67 3.0 NNW 30 48 16 26 1006.3 1006.4 0.0
29/11:30am 13.6 7.7 7.6 67 2.9 NNW 28 48 15 26 1006.3 - 0.0
29/11:08am 13.8 8.0 7.8 67 3.0 NNW 28 48 15 26 1007.0 - 0.0
29/11:00am 13.6 8.2 7.8 68 2.9 NNW 26 41 14 22 1006.7 1006.8 0.0
29/10:30am 13.3 8.1 7.1 66 3.0 N 24 44 13 24 1006.7 - 0.0
29/10:00am 13.0 7.7 7.0 67 2.9 N 24 48 13 26 1006.5 1006.6 0.0
29/09:30am 13.0 7.7 7.0 67 2.9 N 24 48 13 26 1006.8 - 0.0
29/09:18am 12.8 6.7 6.8 67 2.9 NNW 28 46 15 25 1006.9 - 0.0
29/09:00am 12.9 7.2 6.9 67 2.9 NNW 26 44 14 24 1007.3 1007.4 0.0
29/08:30am 12.4 8.1 6.9 69 2.6 N 19 37 10 20 1007.8 - 0.0
29/08:00am 12.4 7.5 6.9 69 2.6 NNW 22 37 12 20 1008.1 1008.2 0.0
29/07:30am 12.3 7.8 6.8 69 2.6 N 20 33 11 18 1007.4 - 0.0
29/07:05am 12.5 5.7 6.8 68 2.7 NNW 32 50 17 27 1006.8 - 0.0
29/07:00am 12.7 6.3 7.0 68 2.8 NNW 30 46 16 25 1006.9 1007.0 0.0
29/06:30am 12.6 6.6 7.1 69 2.7 NNW 28 48 15 26 1006.9 - 0.0
29/06:00am 12.2 6.2 6.9 70 2.5 N 28 48 15 26 1006.9 1007.0 0.0
29/05:30am 12.2 6.2 6.9 70 2.5 NNW 28 48 15 26 1006.9 - 0.0
29/05:00am 12.3 7.0 7.0 70 2.6 NNW 24 44 13 24 1007.4 1007.5 0.0
29/04:30am 12.6 7.4 7.1 69 2.7 NNW 24 56 13 30 1007.4 - 0.0
29/04:00am 12.7 7.5 7.2 69 2.7 N 24 44 13 24 1007.5 1007.6 0.0
29/03:30am 12.6 7.4 7.1 69 2.7 N 24 41 13 22 1007.8 - 0.0
29/03:00am 12.7 7.1 7.0 68 2.8 N 26 39 14 21 1008.1 1008.2 0.0
29/02:45am 12.7 6.7 7.0 68 2.7 NNW 28 48 15 26 1008.1 - 0.0
29/02:30am 12.7 7.1 7.0 68 2.7 N 26 44 14 24 1008.1 - 0.0
29/02:00am 12.6 8.7 7.1 69 2.7 N 17 32 9 17 1009.0 1009.1 0.0
29/01:30am 12.6 9.1 7.1 69 2.7 N 15 32 8 17 1009.5 - 0.0
29/01:00am 12.7 9.2 7.4 70 2.6 N 15 32 8 17 1009.9 1010.0 0.0
29/12:30am 12.8 9.3 7.3 69 2.7 N 15 30 8 16 1010.4 - 0.0
29/12:00am 13.0 8.7 7.0 67 2.9 N 19 37 10 20 1010.8 1010.9 0.0
 
Date/Time
EST
Temp
°C
App
Temp
°C
Dew
Point
Rel
Hum
%
Delta-T
°C
Wind Press
QNH
hPa
Press
MSL
hPa
Rain
since 9 am
mm
Dir
 
Spd
km/h
Gust
km/h
Spd
kts
Gust
kts
28/11:30pm 13.1 8.8 6.9 66 3.0 N 19 37 10 20 1010.9 - 0.0
28/11:00pm 13.3 8.8 7.1 66 3.0 N 20 33 11 18 1011.2 1011.3 0.0
28/10:30pm 13.3 8.5 7.3 67 2.9 N 22 39 12 21 1011.3 - 0.0
28/10:00pm 13.4 9.0 7.2 66 3.0 N 20 32 11 17 1011.4 1011.5 0.0
28/09:30pm 13.6 9.2 7.4 66 3.0 N 20 33 11 18 1011.2 - 0.0
28/09:00pm 13.8 9.4 7.6 66 3.1 N 20 37 11 20 1011.1 1011.2 0.0
28/08:30pm 13.8 10.4 7.6 66 3.0 N 15 28 8 15 1011.4 - 0.0
28/08:00pm 13.6 10.1 7.4 66 3.0 N 15 30 8 16 1011.5 1011.6 0.0
28/07:30pm 13.5 10.5 7.5 67 2.9 N 13 20 7 11 1011.4 - 0.0
28/07:00pm 13.8 10.3 7.3 65 3.2 N 15 28 8 15 1011.3 1011.4 0.0
28/06:30pm 14.1 10.2 7.2 63 3.4 NNW 17 32 9 17 1011.0 - 0.0
28/06:00pm 14.8 10.3 7.1 60 3.8 NW 20 32 11 17 1010.9 1011.0 0.0
28/05:30pm 13.9 10.4 7.2 64 3.3 NNW 15 28 8 15 1010.6 - 0.0
28/05:00pm 14.5 10.7 7.5 63 3.5 NNW 17 37 9 20 1010.6 1010.7 0.0
28/04:30pm 15.2 11.0 7.5 60 3.8 NNW 19 33 10 18 1010.9 - 0.0
28/04:00pm 15.6 11.2 7.4 58 4.1 NW 20 30 11 16 1011.2 1011.3 0.0
28/03:30pm 16.4 11.9 6.8 53 4.7 NNW 20 35 11 19 1010.7 - 0.0
28/03:00pm 16.6 11.7 6.7 52 4.9 NNW 22 37 12 20 1010.4 1010.5 0.0
28/02:30pm 16.8 12.2 6.6 51 5.0 NNW 20 37 11 20 1010.7 - 0.0
28/02:00pm 16.8 12.3 6.3 50 5.1 NNW 19 32 10 17 1011.2 1011.3 0.0
28/01:30pm 16.4 11.7 6.0 50 5.0 NNW 20 35 11 19 1011.5 - 0.0
28/01:00pm 16.0 11.3 6.2 52 4.8 NNW 20 37 11 20 1011.9 1012.0 0.0
28/12:30pm 16.0 11.6 6.4 53 4.7 NNW 19 33 10 18 1012.8 - 0.0
28/12:00pm 15.5 10.9 6.5 55 4.4 NNW 20 35 11 19 1013.4 1013.5 0.0
28/11:30am 15.1 10.6 6.1 55 4.3 NNW 19 33 10 18 1013.9 - 0.0
28/11:00am 14.7 9.9 5.8 55 4.2 NNW 20 37 11 20 1014.1 1014.1 0.0
28/10:30am 14.4 9.2 5.5 55 4.2 NNW 22 39 12 21 1014.4 - 0.0
28/10:00am 14.0 9.8 5.6 57 4.0 N 17 33 9 18 1014.6 1014.6 0.0
28/09:30am 13.4 10.3 5.6 59 3.7 N 11 22 6 12 1014.8 - 0.0
28/09:00am 12.6 9.9 5.8 63 3.2 N 9 17 5 9 1014.9 1014.9 0.0
28/08:30am 11.7 9.0 5.6 66 2.8 N 9 20 5 11 1015.1 - 0.0
28/08:00am 11.3 8.1 5.2 66 2.8 N 11 19 6 10 1015.3 1015.3 0.0
28/07:30am 11.2 7.5 4.7 64 2.9 NNW 13 30 7 16 1015.4 - 0.0
28/07:00am 11.4 7.7 4.6 63 3.1 NNW 13 26 7 14 1015.5 1015.5 0.0
28/06:30am 11.4 7.9 5.3 66 2.8 N 13 26 7 14 1015.2 - 0.0
28/06:00am 11.1 8.0 5.4 68 2.6 N 11 19 6 10 1015.3 1015.3 0.0
28/05:30am 11.0 7.5 5.5 69 2.5 N 13 22 7 12 1015.4 - 0.0
28/05:00am 11.5 6.9 5.6 67 2.7 N 19 28 10 15 1015.5 1015.5 0.0
28/04:30am 11.7 7.1 5.8 67 2.7 N 19 28 10 15 1015.5 - 0.0
28/04:00am 12.1 7.9 5.9 66 2.9 N 17 30 9 16 1015.8 1015.8 0.0
28/03:30am 11.9 8.2 6.2 68 2.7 N 15 26 8 14 1016.0 - 0.0
28/03:00am 12.0 7.0 6.3 68 2.7 N 22 35 12 19 1016.1 1016.1 0.0
28/02:30am 11.9 6.9 6.4 69 2.6 N 22 37 12 20 1016.2 - 0.0
28/02:00am 12.1 7.1 6.4 68 2.7 N 22 33 12 18 1016.5 1016.5 0.0
28/01:30am 12.2 7.2 6.5 68 2.7 N 22 39 12 21 1016.6 - 0.0
28/01:00am 12.3 8.3 6.8 69 2.6 N 17 32 9 17 1016.9 1016.9 0.0
28/12:30am 12.4 8.1 6.9 69 2.6 N 19 30 10 16 1017.5 - 0.0
28/12:00am 12.5 8.2 7.2 70 2.6 NNW 19 33 10 18 1017.7 1017.7 0.0
 
Date/Time
EST
Temp
°C
App
Temp
°C
Dew
Point
Rel
Hum
%
Delta-T
°C
Wind Press
QNH
hPa
Press
MSL
hPa
Rain
since 9 am
mm
Dir
 
Spd
km/h
Gust
km/h
Spd
kts
Gust
kts
27/11:30pm 12.5 8.1 7.4 71 2.5 N 20 39 11 21 1017.6 - 0.0
27/11:00pm 12.4 8.6 7.5 72 2.4 N 17 35 9 19 1017.9 1017.9 0.0

Other Formats:

Comma delimited format used in spreadsheet applications
http://www.bom.gov.au/fwo/IDV60801/IDV60801.94898.axf

JavaScript Object Notation format (JSON) in row-major order
http://www.bom.gov.au/fwo/IDV60801/IDV60801.94898.json